createdAt,value
2023-01-04T00:02:11.504Z,70.13
2023-01-04T00:04:40.205Z,49.77
2023-01-04T00:07:08.810Z,35.77
2023-01-04T00:09:37.395Z,36.50
2023-01-04T00:12:06.465Z,45.77
2023-01-04T00:14:35.021Z,39.10
2023-01-04T00:17:04.662Z,68.97
2023-01-04T00:19:33.736Z,38.57
2023-01-04T00:22:02.123Z,61.37
2023-01-04T00:24:30.353Z,67.83
2023-01-04T00:26:58.592Z,192.17
2023-01-04T00:29:27.185Z,149.63
2023-01-04T00:31:55.698Z,174.53
2023-01-04T00:34:25.311Z,57.83
2023-01-04T00:36:53.896Z,84.60
2023-01-04T00:39:22.393Z,62.27
2023-01-04T00:42:01.255Z,110.23
2023-01-04T00:44:30.835Z,106.40
2023-01-04T00:46:59.485Z,56.93
2023-01-04T00:49:30.613Z,74.33
2023-01-04T00:51:59.444Z,90.60
2023-01-04T00:54:28.227Z,86.67
2023-01-04T00:56:56.889Z,67.83
2023-01-04T00:59:25.572Z,28.63
2023-01-04T01:01:54.657Z,59.93
2023-01-04T01:04:25.412Z,30.67
2023-01-04T01:06:55.283Z,231.70
2023-01-04T01:09:23.958Z,144.07
2023-01-04T01:11:53.871Z,54.53
2023-01-04T01:14:25.757Z,89.03
2023-01-04T01:16:58.058Z,105.63
2023-01-04T01:19:29.562Z,67.07
2023-01-04T01:22:00.093Z,35.00
2023-01-04T01:24:29.420Z,35.33
2023-01-04T01:26:58.007Z,95.97
2023-01-04T01:29:26.722Z,73.67
2023-01-04T01:31:55.399Z,66.97
2023-01-04T01:34:23.864Z,60.57
2023-01-04T01:36:52.530Z,47.93
2023-01-04T01:39:22.252Z,37.73
2023-01-04T01:41:50.940Z,39.73
2023-01-04T01:45:00.027Z,50.23
2023-01-04T01:47:35.250Z,49.57
2023-01-04T01:50:06.233Z,55.53
2023-01-04T01:52:41.546Z,41.43
2023-01-04T01:55:13.860Z,63.43
2023-01-04T01:57:43.066Z,45.00
2023-01-04T02:00:16.625Z,45.20
2023-01-04T02:02:56.781Z,46.67
2023-01-04T02:05:28.360Z,40.70
2023-01-04T02:07:56.592Z,59.97
2023-01-04T02:10:27.307Z,118.80
2023-01-04T02:12:56.064Z,61.03
2023-01-04T02:15:29.641Z,55.30
2023-01-04T02:18:10.024Z,49.00
2023-01-04T02:20:48.257Z,48.33
2023-01-04T02:24:02.803Z,49.97
2023-01-04T02:27:33.646Z,71.80
2023-01-04T02:30:30.430Z,48.67
2023-01-04T02:33:22.366Z,55.00
2023-01-04T02:36:06.184Z,38.63
2023-01-04T02:38:48.017Z,47.37
2023-01-04T02:41:29.513Z,40.67
2023-01-04T02:44:25.484Z,35.63
2023-01-04T02:47:03.486Z,38.50
2023-01-04T02:49:51.512Z,56.33
2023-01-04T02:52:21.357Z,55.70
2023-01-04T02:54:54.380Z,49.77
2023-01-04T02:57:36.492Z,39.03
2023-01-04T03:00:20.662Z,37.33
2023-01-04T03:03:37.195Z,45.83
2023-01-04T03:06:18.466Z,43.07
2023-01-04T03:08:55.622Z,46.60
2023-01-04T03:11:50.206Z,43.93
2023-01-04T03:14:32.165Z,33.33
2023-01-04T03:17:06.312Z,33.30
2023-01-04T03:19:55.162Z,32.70
2023-01-04T03:22:52.461Z,36.50
2023-01-04T03:25:47.018Z,41.00
2023-01-04T03:28:36.529Z,31.53
2023-01-04T03:31:40.351Z,36.30
2023-01-04T03:34:26.471Z,33.53
2023-01-04T03:37:08.626Z,36.67
2023-01-04T03:40:12.447Z,33.47
2023-01-04T03:43:07.450Z,39.77
2023-01-04T03:46:02.465Z,32.03
2023-01-04T03:48:37.729Z,40.60
2023-01-04T03:51:16.417Z,36.53
2023-01-04T03:53:55.518Z,31.77
2023-01-04T03:56:27.731Z,34.07
2023-01-04T03:58:57.302Z,39.53
2023-01-04T04:01:27.974Z,35.00
2023-01-04T04:04:14.635Z,37.07
2023-01-04T04:07:00.691Z,40.00
2023-01-04T04:09:29.245Z,39.90
2023-01-04T04:11:59.546Z,33.67
2023-01-04T04:14:28.231Z,41.53
2023-01-04T04:16:56.888Z,39.57
2023-01-04T04:19:25.545Z,39.87
2023-01-04T04:21:53.959Z,42.50
2023-01-04T04:24:26.175Z,39.07
2023-01-04T04:26:56.097Z,41.93
2023-01-04T04:29:26.515Z,37.27
2023-01-04T04:31:55.226Z,41.43
2023-01-04T04:34:23.952Z,37.83
2023-01-04T04:36:52.485Z,35.17
2023-01-04T04:39:21.075Z,37.67
2023-01-04T04:41:48.355Z,42.50
2023-01-04T04:44:19.190Z,36.37
2023-01-04T04:46:50.632Z,39.97
2023-01-04T04:49:19.697Z,40.73
2023-01-04T04:51:48.820Z,40.13
2023-01-04T04:54:19.738Z,41.50
2023-01-04T04:56:48.977Z,37.20
2023-01-04T04:59:17.962Z,32.60
2023-01-04T05:01:48.119Z,32.57
2023-01-04T05:04:19.497Z,32.93
2023-01-04T05:06:50.276Z,33.53
2023-01-04T05:09:19.066Z,33.47
2023-01-04T05:12:05.432Z,31.90
2023-01-04T05:14:34.002Z,32.17
2023-01-04T05:17:03.783Z,38.33
2023-01-04T05:19:32.332Z,30.27
2023-01-04T05:22:00.620Z,31.30
2023-01-04T05:24:28.954Z,29.23
2023-01-04T05:26:57.653Z,30.30
2023-01-04T05:29:43.730Z,30.33
2023-01-04T05:32:13.373Z,27.60
2023-01-04T05:34:42.133Z,27.43
2023-01-04T05:37:10.435Z,28.33
2023-01-04T05:39:39.033Z,27.63
2023-01-04T05:42:24.650Z,25.67
2023-01-04T05:44:53.509Z,27.40
2023-01-04T05:47:24.290Z,24.30
2023-01-04T05:49:53.194Z,24.47
2023-01-04T05:52:22.040Z,27.57
2023-01-04T05:54:50.445Z,23.53
2023-01-04T05:57:19.076Z,25.57
2023-01-04T05:59:47.565Z,24.57
2023-01-04T06:02:18.846Z,23.77
2023-01-04T06:04:54.702Z,24.80
2023-01-04T06:07:28.829Z,27.97
2023-01-04T06:09:57.575Z,24.17
2023-01-04T06:12:26.241Z,24.83
2023-01-04T06:14:54.821Z,30.30
2023-01-04T06:17:23.628Z,31.37
2023-01-04T06:19:53.300Z,27.97
2023-01-04T06:22:22.241Z,28.47
2023-01-04T06:24:50.820Z,30.37
2023-01-04T06:27:19.696Z,31.00
2023-01-04T06:29:48.343Z,30.27
2023-01-04T06:32:17.094Z,33.33
2023-01-04T06:34:45.828Z,33.90
2023-01-04T06:37:15.391Z,30.20
2023-01-04T06:39:43.977Z,32.03
2023-01-04T06:42:32.603Z,29.13
2023-01-04T06:45:00.844Z,28.43
2023-01-04T06:47:29.163Z,32.13
2023-01-04T06:49:57.795Z,33.63
2023-01-04T06:52:28.239Z,30.80
2023-01-04T06:54:56.515Z,30.67
2023-01-04T06:57:25.127Z,27.03
2023-01-04T06:59:53.729Z,28.57
2023-01-04T07:02:22.396Z,25.60
2023-01-04T07:04:51.204Z,27.90
2023-01-04T07:07:19.572Z,23.50
2023-01-04T07:09:49.379Z,25.63
2023-01-04T07:12:17.925Z,22.37
2023-01-04T07:14:46.539Z,26.97
2023-01-04T07:17:14.929Z,25.40
2023-01-04T07:19:43.517Z,26.33
2023-01-04T07:22:12.227Z,25.20
2023-01-04T07:24:41.050Z,26.30
2023-01-04T07:27:11.498Z,27.27
2023-01-04T07:29:43.858Z,26.37
2023-01-04T07:32:14.218Z,23.83
2023-01-04T07:34:43.416Z,25.43
2023-01-04T07:37:13.088Z,22.57
2023-01-04T07:39:41.778Z,21.80
2023-01-04T07:42:11.516Z,25.73
2023-01-04T07:44:40.219Z,22.83
2023-01-04T07:47:08.839Z,25.20
2023-01-04T07:49:37.503Z,27.57
2023-01-04T07:52:06.224Z,27.83
2023-01-04T07:54:34.818Z,27.60
2023-01-04T07:57:03.461Z,26.60
2023-01-04T07:59:33.067Z,27.07
2023-01-04T08:02:01.807Z,24.00
2023-01-04T08:04:34.897Z,23.03
2023-01-04T08:07:03.868Z,22.73
2023-01-04T08:09:32.478Z,21.67
2023-01-04T08:12:00.805Z,24.63
2023-01-04T08:14:29.324Z,29.33
2023-01-04T08:16:59.372Z,30.23
2023-01-04T08:19:28.700Z,27.30
2023-01-04T08:21:57.277Z,29.27
2023-01-04T08:24:25.746Z,30.23
2023-01-04T08:26:54.318Z,26.87
2023-01-04T08:29:22.584Z,30.97
2023-01-04T08:31:50.990Z,31.27
2023-01-04T08:34:20.700Z,30.30
2023-01-04T08:36:53.278Z,28.60
2023-01-04T08:39:21.975Z,29.17
2023-01-04T08:42:00.535Z,31.33
2023-01-04T08:44:31.442Z,26.00
2023-01-04T08:46:59.860Z,26.60
2023-01-04T08:49:29.560Z,23.27
2023-01-04T08:51:58.433Z,21.67
2023-01-04T08:54:27.051Z,22.07
2023-01-04T08:56:55.732Z,19.83
2023-01-04T08:59:24.013Z,20.10
2023-01-04T09:01:52.759Z,18.43
2023-01-04T09:04:21.247Z,18.57
2023-01-04T09:06:51.160Z,20.90
2023-01-04T09:09:19.752Z,19.23
2023-01-04T09:11:48.661Z,18.70
2023-01-04T09:14:17.226Z,17.93
2023-01-04T09:16:46.054Z,19.90
2023-01-04T09:19:21.440Z,21.37
2023-01-04T09:21:51.878Z,18.73
2023-01-04T09:24:20.524Z,18.47
2023-01-04T09:26:49.174Z,16.23
2023-01-04T09:29:18.060Z,16.37
2023-01-04T09:31:46.861Z,17.87
2023-01-04T09:34:17.542Z,16.23
2023-01-04T09:36:48.762Z,13.87
2023-01-04T09:39:22.954Z,15.40
2023-01-04T09:41:58.274Z,16.60
2023-01-04T09:47:35.531Z,14.23
2023-01-04T09:50:13.899Z,16.67
2023-01-04T09:52:57.752Z,15.60
2023-01-04T09:55:39.779Z,13.93
2023-01-04T09:58:22.626Z,14.80
2023-01-04T10:01:00.554Z,13.23
2023-01-04T10:03:34.537Z,15.90
2023-01-04T10:06:04.612Z,18.03
2023-01-04T10:08:33.553Z,12.80
2023-01-04T10:11:18.564Z,13.93
2023-01-04T10:14:07.168Z,13.93
2023-01-04T10:17:13.312Z,12.43
2023-01-04T10:23:40.738Z,14.63
2023-01-04T10:26:14.817Z,10.40
2023-01-04T10:29:08.339Z,11.07
2023-01-04T10:31:44.850Z,10.30
2023-01-04T10:34:25.631Z,12.67
2023-01-04T10:36:59.637Z,11.57
2023-01-04T10:39:33.464Z,10.43
2023-01-04T10:42:19.766Z,11.37
2023-01-04T10:45:09.489Z,10.93
2023-01-04T10:47:53.643Z,10.13
2023-01-04T10:50:28.434Z,9.93
2023-01-04T10:53:05.210Z,11.53
2023-01-04T10:55:47.141Z,9.07
2023-01-04T10:58:38.665Z,9.07
2023-01-04T11:01:17.247Z,7.30
2023-01-04T11:03:53.042Z,8.23
2023-01-04T11:06:27.824Z,5.90
2023-01-04T11:09:00.313Z,5.37
2023-01-04T11:11:35.113Z,6.13
2023-01-04T11:14:05.448Z,7.23
2023-01-04T11:16:34.108Z,8.33
2023-01-04T11:19:04.305Z,7.93
2023-01-04T11:21:42.183Z,7.27
2023-01-04T11:24:31.474Z,7.90
2023-01-04T11:27:07.107Z,6.43
2023-01-04T11:29:47.331Z,7.20
2023-01-04T11:32:28.742Z,7.63
2023-01-04T11:34:57.991Z,6.70
2023-01-04T11:37:30.236Z,6.00
2023-01-04T11:40:29.375Z,6.53
2023-01-04T11:43:16.417Z,6.97
2023-01-04T11:45:56.281Z,6.50
2023-01-04T11:48:39.667Z,6.20
2023-01-04T11:51:18.777Z,7.83
2023-01-04T11:53:57.651Z,6.03
2023-01-04T11:56:29.299Z,5.40
2023-01-04T11:59:22.882Z,6.87
2023-01-04T12:02:50.485Z,8.50
2023-01-04T12:05:29.061Z,11.20
2023-01-04T12:07:59.739Z,5.97
2023-01-04T12:10:29.682Z,6.83
2023-01-04T12:13:01.175Z,6.40
2023-01-04T12:15:40.327Z,5.53
2023-01-04T12:20:59.636Z,6.47
2023-01-04T12:23:28.407Z,7.17
2023-01-04T12:25:59.241Z,7.77
2023-01-04T12:28:34.413Z,7.07
2023-01-04T12:31:33.072Z,7.17
2023-01-04T12:34:42.443Z,9.50
2023-01-04T12:37:49.395Z,8.07
2023-01-04T12:40:56.410Z,6.00
2023-01-04T12:43:27.804Z,5.60
2023-01-04T12:46:59.052Z,8.07
2023-01-04T12:50:00.579Z,6.07
2023-01-04T12:53:02.261Z,4.50
2023-01-04T12:56:00.253Z,7.20
2023-01-04T13:01:28.687Z,4.67
2023-01-04T13:04:05.638Z,5.97
2023-01-04T13:06:43.822Z,4.70
2023-01-04T13:09:23.700Z,3.60
2023-01-04T13:12:15.326Z,4.47
2023-01-04T13:14:50.247Z,5.33
2023-01-04T13:17:24.818Z,4.73
2023-01-04T13:19:53.741Z,4.77
2023-01-04T13:22:29.710Z,4.70
2023-01-04T13:25:02.970Z,4.60
2023-01-04T13:27:33.499Z,3.30
2023-01-04T13:30:03.408Z,6.93
2023-01-04T13:32:47.033Z,4.53
2023-01-04T13:35:23.402Z,4.93
2023-01-04T13:37:53.212Z,5.17
2023-01-04T13:40:29.639Z,4.53
2023-01-04T13:43:14.248Z,4.33
2023-01-04T13:45:53.591Z,4.20
2023-01-04T13:48:24.867Z,5.03
2023-01-04T13:51:04.999Z,3.87
2023-01-04T13:53:34.325Z,4.53
2023-01-04T13:56:04.501Z,4.80
2023-01-04T13:58:36.150Z,4.83
2023-01-04T14:01:08.913Z,4.00
2023-01-04T14:03:42.047Z,6.80
2023-01-04T14:06:27.496Z,4.30
2023-01-04T14:09:06.069Z,5.13
2023-01-04T14:12:09.104Z,5.57
2023-01-04T14:14:49.869Z,4.53
2023-01-04T14:17:36.019Z,5.00
2023-01-04T14:20:07.601Z,5.40
2023-01-04T14:22:43.093Z,4.13
2023-01-04T14:25:43.555Z,5.40
2023-01-04T14:28:33.921Z,4.73
2023-01-04T14:31:44.786Z,4.53
2023-01-04T14:34:15.702Z,4.60
2023-01-04T14:36:45.118Z,4.57
2023-01-04T14:39:36.376Z,5.43
2023-01-04T14:42:06.144Z,5.17
2023-01-04T14:44:36.243Z,3.70
2023-01-04T14:47:07.320Z,4.93
2023-01-04T14:49:35.872Z,4.53
2023-01-04T14:52:11.941Z,6.00
2023-01-04T14:54:40.539Z,6.40
2023-01-04T14:57:10.227Z,4.10
2023-01-04T14:59:38.800Z,4.10
2023-01-04T15:02:11.206Z,3.57
2023-01-04T15:04:40.072Z,3.20
2023-01-04T15:07:28.795Z,5.47
2023-01-04T15:09:57.325Z,4.80
2023-01-04T15:12:25.972Z,8.70
2023-01-04T15:14:54.570Z,4.43
2023-01-04T15:17:24.230Z,4.80
2023-01-04T15:19:52.895Z,5.07
2023-01-04T15:22:21.512Z,4.13
2023-01-04T15:24:50.065Z,5.67
2023-01-04T15:27:18.655Z,5.10
2023-01-04T15:29:47.240Z,5.97
2023-01-04T15:32:15.933Z,4.73
2023-01-04T15:34:47.116Z,6.00
2023-01-04T15:37:21.814Z,4.00
2023-01-04T15:39:56.729Z,5.50
2023-01-04T15:42:46.221Z,9.87
2023-01-04T15:45:14.523Z,6.80
2023-01-04T15:47:43.089Z,4.20
2023-01-04T15:50:12.837Z,4.17
2023-01-04T15:52:41.477Z,5.40
2023-01-04T15:55:10.765Z,4.77
2023-01-04T15:57:43.715Z,4.90
2023-01-04T16:00:14.408Z,4.47
2023-01-04T16:02:42.960Z,4.83
2023-01-04T16:05:12.712Z,5.17
2023-01-04T16:07:41.395Z,6.57
2023-01-04T16:10:10.725Z,7.17
2023-01-04T16:12:48.713Z,10.53
2023-01-04T16:15:22.756Z,5.70
2023-01-04T16:17:51.456Z,5.50
2023-01-04T16:20:21.743Z,5.83
2023-01-04T16:22:50.405Z,5.03
2023-01-04T16:25:19.019Z,3.93
2023-01-04T16:27:47.634Z,4.43
2023-01-04T16:30:16.352Z,6.80
2023-01-04T16:32:45.805Z,4.27
2023-01-04T16:35:14.438Z,5.00
2023-01-04T16:37:44.461Z,7.57
2023-01-04T16:40:14.020Z,5.00
2023-01-04T16:42:43.549Z,6.13
2023-01-04T16:45:12.799Z,7.80
2023-01-04T16:47:44.435Z,5.70
2023-01-04T16:50:14.118Z,5.80
2023-01-04T16:52:43.875Z,5.00
2023-01-04T16:55:12.550Z,5.30
2023-01-04T16:57:41.154Z,4.93
2023-01-04T17:00:11.098Z,5.73
2023-01-04T17:02:39.624Z,5.40
2023-01-04T17:05:08.933Z,5.07
2023-01-04T17:07:37.532Z,8.33
2023-01-04T17:10:08.551Z,5.13
2023-01-04T17:12:47.190Z,5.93
2023-01-04T17:15:43.168Z,5.40
2023-01-04T17:18:06.289Z,5.30
2023-01-04T17:20:34.976Z,4.77
2023-01-04T17:23:03.840Z,4.90
2023-01-04T17:25:33.858Z,6.57
2023-01-04T17:28:02.490Z,5.30
2023-01-04T17:30:31.303Z,9.00
2023-01-04T17:32:59.589Z,4.63
2023-01-04T17:35:28.242Z,4.33
2023-01-04T17:37:56.884Z,5.70
2023-01-04T17:40:25.521Z,4.00
2023-01-04T17:42:55.436Z,4.50
2023-01-04T17:45:23.794Z,5.20
2023-01-04T17:47:52.474Z,4.43
2023-01-04T17:50:22.206Z,5.50
2023-01-04T17:52:51.770Z,5.33
2023-01-04T17:55:21.463Z,5.07
2023-01-04T17:57:49.884Z,5.90
2023-01-04T18:00:20.515Z,3.90
2023-01-04T18:02:49.200Z,4.70
2023-01-04T18:05:17.889Z,3.90
2023-01-04T18:07:46.526Z,7.50
2023-01-04T18:10:21.522Z,4.03
2023-01-04T18:13:03.904Z,4.17
2023-01-04T18:15:36.179Z,3.90
2023-01-04T18:18:12.554Z,4.03
2023-01-04T18:20:41.139Z,6.00
2023-01-04T18:23:19.080Z,3.73
2023-01-04T18:25:52.805Z,3.83
2023-01-04T18:28:21.565Z,5.20
2023-01-04T18:30:51.539Z,4.23
2023-01-04T18:33:20.171Z,3.57
2023-01-04T18:35:48.719Z,4.40
2023-01-04T18:38:17.315Z,3.23
2023-01-04T18:40:46.836Z,5.67
2023-01-04T18:43:15.385Z,5.87
2023-01-04T18:45:43.982Z,4.13
2023-01-04T18:48:13.586Z,3.10
2023-01-04T18:50:42.622Z,4.73
2023-01-04T18:53:10.965Z,3.67
2023-01-04T18:55:40.251Z,3.93
2023-01-04T18:58:09.179Z,2.53
2023-01-04T19:00:37.769Z,3.33
2023-01-04T19:03:06.512Z,3.10
2023-01-04T19:05:36.425Z,2.90
2023-01-04T19:08:05.300Z,3.50
2023-01-04T19:10:33.904Z,2.30
2023-01-04T19:13:02.489Z,3.47
2023-01-04T19:15:30.891Z,2.37
2023-01-04T19:17:59.418Z,3.03
2023-01-04T19:20:27.761Z,4.20
2023-01-04T19:22:57.336Z,3.73
2023-01-04T19:25:28.487Z,4.13
2023-01-04T19:27:57.304Z,2.40
2023-01-04T19:30:25.891Z,3.90
2023-01-04T19:32:54.522Z,3.20
2023-01-04T19:35:23.115Z,2.87
2023-01-04T19:37:51.737Z,2.87
2023-01-04T19:40:21.438Z,3.03
2023-01-04T19:42:49.980Z,3.03
2023-01-04T19:45:19.109Z,3.70
2023-01-04T19:47:50.225Z,2.83
2023-01-04T19:50:19.125Z,2.07
2023-01-04T19:52:47.755Z,2.40
2023-01-04T19:55:16.353Z,2.17
2023-01-04T19:57:46.382Z,3.97
2023-01-04T20:00:16.094Z,2.77
2023-01-04T20:02:44.771Z,2.60
2023-01-04T20:05:13.387Z,2.20
2023-01-04T20:07:44.250Z,2.63
2023-01-04T20:10:14.629Z,2.90
2023-01-04T20:12:43.681Z,2.93
2023-01-04T20:15:14.273Z,3.07
2023-01-04T20:17:42.878Z,2.50
2023-01-04T20:20:11.993Z,2.47
2023-01-04T20:22:40.979Z,4.90
2023-01-04T20:25:10.016Z,4.30
2023-01-04T20:27:38.912Z,3.43
2023-01-04T20:30:09.304Z,3.83
2023-01-04T20:32:38.936Z,3.20
2023-01-04T20:35:08.282Z,3.20
2023-01-04T20:37:36.832Z,5.43
2023-01-04T20:40:06.029Z,5.23
2023-01-04T20:42:53.144Z,3.37
2023-01-04T20:45:21.389Z,4.27
2023-01-04T20:47:50.982Z,3.50
2023-01-04T20:50:19.243Z,3.43
2023-01-04T20:52:47.810Z,2.93
2023-01-04T20:55:17.699Z,3.07
2023-01-04T20:57:46.507Z,4.03
2023-01-04T21:00:16.558Z,4.83
2023-01-04T21:02:45.246Z,2.60
2023-01-04T21:05:15.455Z,2.53
2023-01-04T21:07:44.182Z,2.70
2023-01-04T21:10:12.745Z,3.73
2023-01-04T21:12:41.324Z,2.60
2023-01-04T21:15:10.771Z,4.00
2023-01-04T21:17:39.374Z,5.07
2023-01-04T21:20:08.927Z,2.53
2023-01-04T21:22:38.586Z,2.00
2023-01-04T21:25:07.829Z,2.63
2023-01-04T21:27:36.814Z,2.63
2023-01-04T21:30:06.906Z,2.00
2023-01-04T21:32:35.489Z,2.83
2023-01-04T21:35:04.195Z,3.33
2023-01-04T21:37:32.807Z,4.23
2023-01-04T21:40:02.532Z,2.90
2023-01-04T21:42:32.206Z,2.30
2023-01-04T21:45:00.452Z,3.37
2023-01-04T21:47:31.856Z,3.17
2023-01-04T21:50:00.499Z,2.70
2023-01-04T21:52:29.132Z,4.30
2023-01-04T21:54:57.684Z,3.50
2023-01-04T21:57:27.287Z,3.97
2023-01-04T21:59:55.847Z,3.10
2023-01-04T22:02:24.532Z,1.83
2023-01-04T22:04:53.151Z,5.27
2023-01-04T22:07:21.758Z,1.87
2023-01-04T22:09:57.042Z,2.37
2023-01-04T22:12:27.267Z,2.87
2023-01-04T22:14:55.720Z,2.60
2023-01-04T22:17:24.447Z,2.30
2023-01-04T22:19:53.040Z,2.63
2023-01-04T22:22:21.431Z,3.10
2023-01-04T22:24:49.717Z,4.10
2023-01-04T22:27:18.373Z,2.93
2023-01-04T22:29:47.997Z,4.13
2023-01-04T22:32:16.413Z,4.97
2023-01-04T22:34:44.690Z,4.00
2023-01-04T22:37:13.310Z,1.70
2023-01-04T22:39:41.853Z,2.50
2023-01-04T22:42:10.486Z,2.50
2023-01-04T22:44:39.215Z,2.60
2023-01-04T22:47:09.541Z,2.37
2023-01-04T22:49:38.254Z,4.17
2023-01-04T22:52:07.007Z,3.73
2023-01-04T22:54:35.589Z,2.87
2023-01-04T22:57:04.342Z,2.70
2023-01-04T22:59:32.902Z,5.70
2023-01-04T23:02:01.353Z,4.07
2023-01-04T23:04:31.049Z,2.23
2023-01-04T23:06:59.713Z,1.80
2023-01-04T23:09:28.290Z,5.57
2023-01-04T23:11:56.938Z,3.37
2023-01-04T23:14:25.589Z,1.93
2023-01-04T23:16:54.349Z,3.90
2023-01-04T23:19:22.975Z,2.10
2023-01-04T23:21:52.649Z,2.23
2023-01-04T23:24:21.418Z,2.33
2023-01-04T23:26:49.930Z,2.40
2023-01-04T23:29:18.455Z,2.33
2023-01-04T23:31:47.085Z,2.53
2023-01-04T23:34:15.511Z,3.40
2023-01-04T23:36:44.200Z,3.07
2023-01-04T23:39:17.023Z,3.03
2023-01-04T23:41:46.107Z,2.27
2023-01-04T23:44:18.421Z,2.47
2023-01-04T23:46:47.464Z,2.43
2023-01-04T23:49:16.032Z,3.30
2023-01-04T23:51:44.757Z,2.30
2023-01-04T23:54:14.873Z,3.23
2023-01-04T23:56:43.466Z,2.33
2023-01-04T23:59:12.144Z,2.67
